sensor_id;sensor_type;location;lat;lon;timestamp;pressure;altitude;pressure_sealevel;temperature;humidity
7532;BME280;3807;49.030;8.714;2022-07-15T00:01:41;99620.91;;;27.67;33.36
7532;BME280;3807;49.030;8.714;2022-07-15T00:04:07;99623.47;;;27.59;33.45
7532;BME280;3807;49.030;8.714;2022-07-15T00:06:32;99623.62;;;27.57;33.41
7532;BME280;3807;49.030;8.714;2022-07-15T00:08:58;99622.44;;;27.51;33.56
7532;BME280;3807;49.030;8.714;2022-07-15T00:11:23;99625.97;;;27.42;33.68
7532;BME280;3807;49.030;8.714;2022-07-15T00:13:48;99617.31;;;27.42;33.74
7532;BME280;3807;49.030;8.714;2022-07-15T00:16:14;99629.19;;;27.36;33.74
7532;BME280;3807;49.030;8.714;2022-07-15T00:18:42;99622.31;;;27.35;33.87
7532;BME280;3807;49.030;8.714;2022-07-15T00:21:08;99624.88;;;27.27;34.06
7532;BME280;3807;49.030;8.714;2022-07-15T00:23:34;99624.03;;;27.26;33.99
7532;BME280;3807;49.030;8.714;2022-07-15T00:26:00;99624.50;;;27.22;34.11
7532;BME280;3807;49.030;8.714;2022-07-15T00:28:25;99620.16;;;27.13;34.23
7532;BME280;3807;49.030;8.714;2022-07-15T00:30:51;99622.78;;;27.13;34.28
7532;BME280;3807;49.030;8.714;2022-07-15T00:34:59;99612.28;;;27.48;33.93
7532;BME280;3807;49.030;8.714;2022-07-15T00:37:25;99612.28;;;27.48;33.93
7532;BME280;3807;49.030;8.714;2022-07-15T00:39:50;99614.78;;;26.96;34.45
7532;BME280;3807;49.030;8.714;2022-07-15T00:42:15;99614.53;;;26.90;34.58
7532;BME280;3807;49.030;8.714;2022-07-15T00:45:01;99618.25;;;26.87;34.71
7532;BME280;3807;49.030;8.714;2022-07-15T00:47:26;99611.16;;;26.79;34.88
7532;BME280;3807;49.030;8.714;2022-07-15T00:49:53;99616.84;;;26.75;34.88
7532;BME280;3807;49.030;8.714;2022-07-15T00:52:19;99623.84;;;26.74;34.96
7532;BME280;3807;49.030;8.714;2022-07-15T00:54:49;99617.72;;;26.66;35.05
7532;BME280;3807;49.030;8.714;2022-07-15T00:57:16;99618.84;;;26.63;35.18
7532;BME280;3807;49.030;8.714;2022-07-15T00:59:43;99619.56;;;26.55;35.34
7532;BME280;3807;49.030;8.714;2022-07-15T01:02:09;99619.56;;;26.55;35.36
7532;BME280;3807;49.030;8.714;2022-07-15T01:04:38;99607.78;;;26.51;35.25
7532;BME280;3807;49.030;8.714;2022-07-15T01:07:03;99610.69;;;26.48;35.50
7532;BME280;3807;49.030;8.714;2022-07-15T01:09:29;99613.84;;;26.42;35.57
7532;BME280;3807;49.030;8.714;2022-07-15T01:11:54;99616.44;;;26.42;35.62
7532;BME280;3807;49.030;8.714;2022-07-15T01:14:19;99612.78;;;26.35;35.64
7532;BME280;3807;49.030;8.714;2022-07-15T01:16:45;99620.91;;;26.32;35.72
7532;BME280;3807;49.030;8.714;2022-07-15T01:19:10;99619.72;;;26.26;35.80
7532;BME280;3807;49.030;8.714;2022-07-15T01:21:35;99613.13;;;26.22;35.92
7532;BME280;3807;49.030;8.714;2022-07-15T01:24:01;99609.28;;;26.17;35.92
7532;BME280;3807;49.030;8.714;2022-07-15T01:26:26;99618.22;;;26.14;36.05
7532;BME280;3807;49.030;8.714;2022-07-15T01:28:52;99606.44;;;26.10;36.12
7532;BME280;3807;49.030;8.714;2022-07-15T01:31:17;99607.53;;;26.07;36.08
7532;BME280;3807;49.030;8.714;2022-07-15T01:33:42;99602.75;;;26.03;36.20
7532;BME280;3807;49.030;8.714;2022-07-15T01:36:08;99611.69;;;26.00;36.23
7532;BME280;3807;49.030;8.714;2022-07-15T01:38:34;99609.97;;;25.91;36.41
7532;BME280;3807;49.030;8.714;2022-07-15T01:40:59;99609.25;;;25.89;36.46
7532;BME280;3807;49.030;8.714;2022-07-15T01:43:24;99615.84;;;25.83;36.58
7532;BME280;3807;49.030;8.714;2022-07-15T01:45:50;99620.53;;;25.80;36.62
7532;BME280;3807;49.030;8.714;2022-07-15T01:48:15;99609.53;;;25.76;36.66
7532;BME280;3807;49.030;8.714;2022-07-15T01:51:00;99613.81;;;25.77;36.70
7532;BME280;3807;49.030;8.714;2022-07-15T01:53:28;99610.41;;;25.67;36.88
7532;BME280;3807;49.030;8.714;2022-07-15T01:55:54;99611.50;;;25.64;36.88
7532;BME280;3807;49.030;8.714;2022-07-15T01:58:20;99618.50;;;25.64;36.91
7532;BME280;3807;49.030;8.714;2022-07-15T02:00:46;99617.97;;;25.60;36.95
7532;BME280;3807;49.030;8.714;2022-07-15T02:03:11;99621.00;;;25.56;37.05
7532;BME280;3807;49.030;8.714;2022-07-15T02:05:37;99613.03;;;25.48;37.12
7532;BME280;3807;49.030;8.714;2022-07-15T02:08:03;99612.75;;;25.41;37.19
7532;BME280;3807;49.030;8.714;2022-07-15T02:10:29;99607.97;;;25.46;37.17
7532;BME280;3807;49.030;8.714;2022-07-15T02:13:08;99603.47;;;25.38;37.27
7532;BME280;3807;49.030;8.714;2022-07-15T02:15:35;99603.03;;;25.33;37.34
7532;BME280;3807;49.030;8.714;2022-07-15T02:18:00;99604.94;;;25.31;37.40
7532;BME280;3807;49.030;8.714;2022-07-15T02:20:26;99609.91;;;25.25;37.52
7532;BME280;3807;49.030;8.714;2022-07-15T02:22:53;99607.59;;;25.22;37.58
7532;BME280;3807;49.030;8.714;2022-07-15T02:25:18;99608.81;;;25.17;37.62
7532;BME280;3807;49.030;8.714;2022-07-15T02:27:43;99611.00;;;25.12;37.65
7532;BME280;3807;49.030;8.714;2022-07-15T02:30:09;99609.59;;;25.08;37.72
7532;BME280;3807;49.030;8.714;2022-07-15T02:32:35;99608.09;;;25.06;37.76
7532;BME280;3807;49.030;8.714;2022-07-15T02:35:00;99609.19;;;25.03;37.74
7532;BME280;3807;49.030;8.714;2022-07-15T02:37:25;99610.28;;;25.01;37.81
7532;BME280;3807;49.030;8.714;2022-07-15T02:39:51;99614.00;;;24.98;37.81
7532;BME280;3807;49.030;8.714;2022-07-15T02:42:16;99616.88;;;24.95;37.86
7532;BME280;3807;49.030;8.714;2022-07-15T02:44:41;99621.13;;;24.86;38.03
7532;BME280;3807;49.030;8.714;2022-07-15T02:47:07;99617.97;;;24.83;38.03
7532;BME280;3807;49.030;8.714;2022-07-15T02:49:32;99623.81;;;24.75;38.14
7532;BME280;3807;49.030;8.714;2022-07-15T02:51:58;99623.84;;;24.65;38.35
7532;BME280;3807;49.030;8.714;2022-07-15T02:54:23;99623.28;;;24.62;38.38
7532;BME280;3807;49.030;8.714;2022-07-15T02:56:48;99619.00;;;24.61;38.41
7532;BME280;3807;49.030;8.714;2022-07-15T02:59:14;99622.41;;;24.61;38.41
7532;BME280;3807;49.030;8.714;2022-07-15T03:01:39;99620.50;;;24.54;38.59
7532;BME280;3807;49.030;8.714;2022-07-15T03:04:04;99619.69;;;24.53;38.56
7532;BME280;3807;49.030;8.714;2022-07-15T03:06:30;99615.53;;;24.51;38.58
7532;BME280;3807;49.030;8.714;2022-07-15T03:08:55;99626.78;;;24.41;38.71
7532;BME280;3807;49.030;8.714;2022-07-15T03:11:21;99625.38;;;24.37;38.78
7532;BME280;3807;49.030;8.714;2022-07-15T03:13:46;99627.00;;;24.38;38.71
7532;BME280;3807;49.030;8.714;2022-07-15T03:16:11;99628.91;;;24.36;38.78
7532;BME280;3807;49.030;8.714;2022-07-15T03:18:37;99623.50;;;24.18;39.09
7532;BME280;3807;49.030;8.714;2022-07-15T03:21:02;99630.22;;;24.21;39.03
7532;BME280;3807;49.030;8.714;2022-07-15T03:23:28;99639.25;;;24.17;39.14
7532;BME280;3807;49.030;8.714;2022-07-15T03:25:53;99647.88;;;24.17;39.11
7532;BME280;3807;49.030;8.714;2022-07-15T03:28:18;99643.84;;;24.04;39.31
7532;BME280;3807;49.030;8.714;2022-07-15T03:30:44;99647.84;;;24.08;39.21
7532;BME280;3807;49.030;8.714;2022-07-15T03:33:09;99638.25;;;24.08;39.17
7532;BME280;3807;49.030;8.714;2022-07-15T03:35:35;99641.25;;;24.04;39.27
7532;BME280;3807;49.030;8.714;2022-07-15T03:38:00;99641.66;;;23.99;39.34
7532;BME280;3807;49.030;8.714;2022-07-15T03:40:25;99637.06;;;23.91;39.43
7532;BME280;3807;49.030;8.714;2022-07-15T03:42:51;99640.13;;;23.96;39.34
7532;BME280;3807;49.030;8.714;2022-07-15T03:45:16;99637.63;;;23.95;39.41
7532;BME280;3807;49.030;8.714;2022-07-15T03:47:41;99641.13;;;23.84;39.56
7532;BME280;3807;49.030;8.714;2022-07-15T03:50:07;99637.38;;;23.77;39.68
7532;BME280;3807;49.030;8.714;2022-07-15T03:52:33;99642.22;;;23.82;39.60
7532;BME280;3807;49.030;8.714;2022-07-15T03:54:59;99640.81;;;23.77;39.67
7532;BME280;3807;49.030;8.714;2022-07-15T03:57:24;99638.19;;;23.68;39.81
7532;BME280;3807;49.030;8.714;2022-07-15T03:59:50;99637.13;;;23.59;39.96
7532;BME280;3807;49.030;8.714;2022-07-15T04:02:15;99645.56;;;23.51;40.11
7532;BME280;3807;49.030;8.714;2022-07-15T04:04:41;99638.31;;;23.55;40.07
7532;BME280;3807;49.030;8.714;2022-07-15T04:07:06;99644.97;;;23.48;40.20
7532;BME280;3807;49.030;8.714;2022-07-15T04:09:31;99647.34;;;23.51;40.17
7532;BME280;3807;49.030;8.714;2022-07-15T04:11:57;99644.84;;;23.49;40.12
7532;BME280;3807;49.030;8.714;2022-07-15T04:14:22;99642.97;;;23.51;40.12
7532;BME280;3807;49.030;8.714;2022-07-15T04:16:47;99641.91;;;23.43;40.15
7532;BME280;3807;49.030;8.714;2022-07-15T04:19:13;99646.53;;;23.39;40.30
7532;BME280;3807;49.030;8.714;2022-07-15T04:21:38;99643.37;;;23.36;40.41
7532;BME280;3807;49.030;8.714;2022-07-15T04:24:04;99642.53;;;23.35;40.39
7532;BME280;3807;49.030;8.714;2022-07-15T04:26:29;99649.41;;;23.36;40.26
7532;BME280;3807;49.030;8.714;2022-07-15T04:28:55;99646.94;;;23.35;40.41
7532;BME280;3807;49.030;8.714;2022-07-15T04:31:21;99651.22;;;23.24;40.58
7532;BME280;3807;49.030;8.714;2022-07-15T04:33:46;99653.97;;;23.23;40.65
7532;BME280;3807;49.030;8.714;2022-07-15T04:36:11;99655.03;;;23.20;40.75
7532;BME280;3807;49.030;8.714;2022-07-15T04:38:37;99649.97;;;23.19;40.70
7532;BME280;3807;49.030;8.714;2022-07-15T04:41:02;99646.25;;;23.21;40.66
7532;BME280;3807;49.030;8.714;2022-07-15T04:43:28;99649.81;;;23.20;40.76
7532;BME280;3807;49.030;8.714;2022-07-15T04:45:53;99651.22;;;23.24;40.63
7532;BME280;3807;49.030;8.714;2022-07-15T04:48:19;99651.97;;;23.15;40.82
7532;BME280;3807;49.030;8.714;2022-07-15T04:51:03;99652.81;;;23.16;40.84
7532;BME280;3807;49.030;8.714;2022-07-15T04:53:28;99649.63;;;23.12;40.77
7532;BME280;3807;49.030;8.714;2022-07-15T04:55:54;99654.34;;;23.07;40.99
7532;BME280;3807;49.030;8.714;2022-07-15T04:58:19;99656.84;;;22.97;41.28
7532;BME280;3807;49.030;8.714;2022-07-15T05:00:46;99655.69;;;23.01;41.21
7532;BME280;3807;49.030;8.714;2022-07-15T05:03:12;99659.34;;;22.99;41.34
7532;BME280;3807;49.030;8.714;2022-07-15T05:05:37;99660.53;;;22.95;41.42
7532;BME280;3807;49.030;8.714;2022-07-15T05:08:04;99672.78;;;23.04;41.21
7532;BME280;3807;49.030;8.714;2022-07-15T05:10:29;99664.75;;;23.07;41.03
7532;BME280;3807;49.030;8.714;2022-07-15T05:12:55;99672.28;;;23.10;40.95
7532;BME280;3807;49.030;8.714;2022-07-15T05:15:20;99679.50;;;23.06;41.05
7532;BME280;3807;49.030;8.714;2022-07-15T05:17:45;99684.25;;;23.01;41.17
7532;BME280;3807;49.030;8.714;2022-07-15T05:20:11;99687.91;;;22.99;41.17
7532;BME280;3807;49.030;8.714;2022-07-15T05:22:36;99679.16;;;23.00;41.17
7532;BME280;3807;49.030;8.714;2022-07-15T05:25:02;99678.94;;;23.03;41.16
7532;BME280;3807;49.030;8.714;2022-07-15T05:27:28;99680.56;;;23.04;41.07
7532;BME280;3807;49.030;8.714;2022-07-15T05:29:53;99673.97;;;23.00;41.17
7532;BME280;3807;49.030;8.714;2022-07-15T05:32:18;99680.13;;;22.99;41.21
7532;BME280;3807;49.030;8.714;2022-07-15T05:34:44;99686.38;;;22.96;41.21
7532;BME280;3807;49.030;8.714;2022-07-15T05:37:09;99688.16;;;22.96;41.24
7532;BME280;3807;49.030;8.714;2022-07-15T05:39:35;99691.47;;;22.98;41.18
7532;BME280;3807;49.030;8.714;2022-07-15T05:42:00;99688.37;;;23.04;40.98
7532;BME280;3807;49.030;8.714;2022-07-15T05:44:26;99685.41;;;22.97;41.27
7532;BME280;3807;49.030;8.714;2022-07-15T05:46:51;99690.75;;;22.96;41.22
7532;BME280;3807;49.030;8.714;2022-07-15T05:49:17;99686.13;;;22.88;41.33
7532;BME280;3807;49.030;8.714;2022-07-15T05:51:43;99690.63;;;22.97;41.09
7532;BME280;3807;49.030;8.714;2022-07-15T05:54:10;99688.03;;;22.86;41.35
7532;BME280;3807;49.030;8.714;2022-07-15T05:56:38;99693.12;;;22.99;41.04
7532;BME280;3807;49.030;8.714;2022-07-15T05:59:04;99690.16;;;22.92;41.11
7532;BME280;3807;49.030;8.714;2022-07-15T06:01:29;99700.19;;;22.97;41.04
7532;BME280;3807;49.030;8.714;2022-07-15T06:03:54;99701.97;;;22.85;41.36
7532;BME280;3807;49.030;8.714;2022-07-15T06:06:20;99698.63;;;22.83;41.41
7532;BME280;3807;49.030;8.714;2022-07-15T06:08:45;99700.62;;;22.91;41.15
7532;BME280;3807;49.030;8.714;2022-07-15T06:11:11;99698.78;;;22.93;41.08
7532;BME280;3807;49.030;8.714;2022-07-15T06:13:37;99695.00;;;22.97;40.94
7532;BME280;3807;49.030;8.714;2022-07-15T06:16:04;99697.81;;;22.94;41.05
7532;BME280;3807;49.030;8.714;2022-07-15T06:18:29;99694.88;;;22.98;40.87
7532;BME280;3807;49.030;8.714;2022-07-15T06:20:55;99699.47;;;23.06;40.86
7532;BME280;3807;49.030;8.714;2022-07-15T06:23:20;99702.69;;;22.98;40.89
7532;BME280;3807;49.030;8.714;2022-07-15T06:25:45;99698.31;;;22.99;40.91
7532;BME280;3807;49.030;8.714;2022-07-15T06:28:11;99711.28;;;22.99;40.87
7532;BME280;3807;49.030;8.714;2022-07-15T06:30:36;99713.31;;;22.95;40.94
7532;BME280;3807;49.030;8.714;2022-07-15T06:33:02;99708.69;;;22.99;40.86
7532;BME280;3807;49.030;8.714;2022-07-15T06:35:27;99707.97;;;22.97;40.96
7532;BME280;3807;49.030;8.714;2022-07-15T06:37:53;99710.34;;;23.00;40.85
7532;BME280;3807;49.030;8.714;2022-07-15T06:40:18;99705.16;;;23.00;40.94
7532;BME280;3807;49.030;8.714;2022-07-15T06:42:43;99710.19;;;23.13;40.64
7532;BME280;3807;49.030;8.714;2022-07-15T06:45:09;99710.44;;;23.10;40.65
7532;BME280;3807;49.030;8.714;2022-07-15T06:47:35;99714.59;;;23.12;40.60
7532;BME280;3807;49.030;8.714;2022-07-15T06:50:01;99713.41;;;23.05;40.78
7532;BME280;3807;49.030;8.714;2022-07-15T06:52:27;99715.66;;;23.10;40.61
7532;BME280;3807;49.030;8.714;2022-07-15T06:54:52;99709.63;;;23.09;40.69
7532;BME280;3807;49.030;8.714;2022-07-15T06:57:18;99713.16;;;23.19;40.42
7532;BME280;3807;49.030;8.714;2022-07-15T06:59:44;99712.31;;;23.19;40.37
7532;BME280;3807;49.030;8.714;2022-07-15T07:02:09;99710.41;;;23.21;40.31
7532;BME280;3807;49.030;8.714;2022-07-15T07:04:34;99706.50;;;23.26;40.16
7532;BME280;3807;49.030;8.714;2022-07-15T07:07:00;99706.50;;;23.26;40.17
7532;BME280;3807;49.030;8.714;2022-07-15T07:09:26;99704.09;;;23.35;40.03
7532;BME280;3807;49.030;8.714;2022-07-15T07:11:51;99701.06;;;23.29;40.09
7532;BME280;3807;49.030;8.714;2022-07-15T07:14:17;99700.69;;;23.34;40.04
7532;BME280;3807;49.030;8.714;2022-07-15T07:16:42;99696.69;;;23.30;40.03
7532;BME280;3807;49.030;8.714;2022-07-15T07:19:07;99695.41;;;23.24;40.18
7532;BME280;3807;49.030;8.714;2022-07-15T07:21:33;99690.34;;;23.23;40.25
7532;BME280;3807;49.030;8.714;2022-07-15T07:23:58;99693.72;;;23.35;39.98
7532;BME280;3807;49.030;8.714;2022-07-15T07:26:24;99686.63;;;23.37;39.99
7532;BME280;3807;49.030;8.714;2022-07-15T07:28:49;99690.03;;;23.37;39.94
7532;BME280;3807;49.030;8.714;2022-07-15T07:31:16;99695.69;;;23.42;39.88
7532;BME280;3807;49.030;8.714;2022-07-15T07:33:42;99692.41;;;23.40;39.78
7532;BME280;3807;49.030;8.714;2022-07-15T07:36:07;99697.94;;;23.36;39.94
7532;BME280;3807;49.030;8.714;2022-07-15T07:38:34;99700.25;;;23.50;39.74
7532;BME280;3807;49.030;8.714;2022-07-15T07:41:00;99693.66;;;23.46;39.59
7532;BME280;3807;49.030;8.714;2022-07-15T07:43:26;99687.44;;;23.37;39.84
7532;BME280;3807;49.030;8.714;2022-07-15T07:45:53;99684.59;;;23.40;40.15
7532;BME280;3807;49.030;8.714;2022-07-15T07:48:18;99684.09;;;23.46;39.88
7532;BME280;3807;49.030;8.714;2022-07-15T07:50:44;99677.31;;;23.55;39.77
7532;BME280;3807;49.030;8.714;2022-07-15T07:53:10;99681.31;;;23.59;39.75
7532;BME280;3807;49.030;8.714;2022-07-15T07:55:36;99681.53;;;23.67;39.69
7532;BME280;3807;49.030;8.714;2022-07-15T07:58:02;99686.75;;;23.67;39.49
7532;BME280;3807;49.030;8.714;2022-07-15T08:00:28;99683.38;;;23.76;39.43
7532;BME280;3807;49.030;8.714;2022-07-15T08:02:55;99689.91;;;23.92;39.54
7532;BME280;3807;49.030;8.714;2022-07-15T08:05:21;99689.03;;;24.03;39.34
7532;BME280;3807;49.030;8.714;2022-07-15T08:07:47;99686.88;;;24.08;39.18
7532;BME280;3807;49.030;8.714;2022-07-15T08:10:13;99681.97;;;24.14;39.04
7532;BME280;3807;49.030;8.714;2022-07-15T08:12:39;99680.75;;;24.18;39.02
7532;BME280;3807;49.030;8.714;2022-07-15T08:15:08;99689.31;;;24.09;39.17
7532;BME280;3807;49.030;8.714;2022-07-15T08:17:34;99684.69;;;24.13;38.99
7532;BME280;3807;49.030;8.714;2022-07-15T08:20:00;99678.03;;;24.20;38.98
7532;BME280;3807;49.030;8.714;2022-07-15T08:22:26;99678.38;;;24.36;38.71
7532;BME280;3807;49.030;8.714;2022-07-15T08:24:51;99679.34;;;24.35;38.55
7532;BME280;3807;49.030;8.714;2022-07-15T08:27:17;99675.75;;;24.36;37.53
7532;BME280;3807;49.030;8.714;2022-07-15T08:29:43;99680.66;;;24.51;37.58
7532;BME280;3807;49.030;8.714;2022-07-15T08:32:09;99686.13;;;24.47;38.18
7532;BME280;3807;49.030;8.714;2022-07-15T08:34:34;99688.09;;;24.65;37.55
7532;BME280;3807;49.030;8.714;2022-07-15T08:37:00;99692.31;;;24.56;37.62
7532;BME280;3807;49.030;8.714;2022-07-15T08:39:25;99692.47;;;24.64;36.31
7532;BME280;3807;49.030;8.714;2022-07-15T08:41:54;99695.53;;;24.69;37.57
7532;BME280;3807;49.030;8.714;2022-07-15T08:44:20;99689.03;;;24.54;35.34
7532;BME280;3807;49.030;8.714;2022-07-15T08:46:46;99685.38;;;24.66;37.57
7532;BME280;3807;49.030;8.714;2022-07-15T08:49:14;99691.44;;;24.77;36.40
7532;BME280;3807;49.030;8.714;2022-07-15T08:51:42;99688.31;;;24.83;36.75
7532;BME280;3807;49.030;8.714;2022-07-15T08:54:08;99695.97;;;24.84;37.19
7532;BME280;3807;49.030;8.714;2022-07-15T08:56:34;99696.94;;;24.93;36.25
7532;BME280;3807;49.030;8.714;2022-07-15T08:59:01;99698.81;;;24.71;35.02
7532;BME280;3807;49.030;8.714;2022-07-15T09:01:28;99694.34;;;24.83;36.34
7532;BME280;3807;49.030;8.714;2022-07-15T09:03:54;99696.75;;;25.15;36.40
7532;BME280;3807;49.030;8.714;2022-07-15T09:06:42;99690.91;;;24.92;34.15
7532;BME280;3807;49.030;8.714;2022-07-15T09:09:32;99698.47;;;24.95;34.53
7532;BME280;3807;49.030;8.714;2022-07-15T09:14:26;99695.94;;;25.34;35.98
7532;BME280;3807;49.030;8.714;2022-07-15T09:17:26;99696.22;;;25.22;34.81
7532;BME280;3807;49.030;8.714;2022-07-15T09:20:09;99696.34;;;25.39;34.27
7532;BME280;3807;49.030;8.714;2022-07-15T09:22:55;99695.53;;;25.39;36.12
7532;BME280;3807;49.030;8.714;2022-07-15T09:25:26;99699.62;;;25.51;35.95
7532;BME280;3807;49.030;8.714;2022-07-15T09:27:52;99695.66;;;25.57;35.94
7532;BME280;3807;49.030;8.714;2022-07-15T09:33:10;99687.56;;;25.89;35.14
7532;BME280;3807;49.030;8.714;2022-07-15T09:36:05;99695.53;;;25.68;35.46
7532;BME280;3807;49.030;8.714;2022-07-15T09:43:57;99690.84;;;25.91;34.53
7532;BME280;3807;49.030;8.714;2022-07-15T09:46:48;99694.44;;;25.61;35.59
7532;BME280;3807;49.030;8.714;2022-07-15T09:49:30;99691.66;;;25.72;33.39
7532;BME280;3807;49.030;8.714;2022-07-15T09:52:00;99684.84;;;25.81;35.47
7532;BME280;3807;49.030;8.714;2022-07-15T09:54:38;99687.31;;;26.29;34.37
7532;BME280;3807;49.030;8.714;2022-07-15T09:57:09;99688.06;;;26.12;34.11
7532;BME280;3807;49.030;8.714;2022-07-15T09:59:35;99684.81;;;26.28;33.72
7532;BME280;3807;49.030;8.714;2022-07-15T10:02:01;99698.59;;;26.20;33.83
7532;BME280;3807;49.030;8.714;2022-07-15T10:04:28;99693.16;;;26.51;33.49
7532;BME280;3807;49.030;8.714;2022-07-15T10:06:56;99696.47;;;26.71;34.15
7532;BME280;3807;49.030;8.714;2022-07-15T10:09:23;99687.41;;;26.75;33.94
7532;BME280;3807;49.030;8.714;2022-07-15T10:11:53;99687.13;;;26.78;33.82
7532;BME280;3807;49.030;8.714;2022-07-15T10:22:59;99682.03;;;26.94;33.70
7532;BME280;3807;49.030;8.714;2022-07-15T10:31:21;99674.81;;;27.77;32.34
7532;BME280;3807;49.030;8.714;2022-07-15T10:39:17;99662.88;;;28.35;31.31
7532;BME280;3807;49.030;8.714;2022-07-15T10:42:03;99666.44;;;28.34;31.76
7532;BME280;3807;49.030;8.714;2022-07-15T10:44:33;99660.31;;;28.43;31.58
7532;BME280;3807;49.030;8.714;2022-07-15T10:49:43;99669.19;;;28.51;31.90
7532;BME280;3807;49.030;8.714;2022-07-15T10:52:36;99663.19;;;28.75;31.38
7532;BME280;3807;49.030;8.714;2022-07-15T10:55:05;99664.06;;;28.91;31.63
7532;BME280;3807;49.030;8.714;2022-07-15T11:03:22;99657.22;;;29.15;30.52
7532;BME280;3807;49.030;8.714;2022-07-15T11:13:39;99645.72;;;29.57;29.82
7532;BME280;3807;49.030;8.714;2022-07-15T11:16:04;99640.34;;;29.58;30.73
7532;BME280;3807;49.030;8.714;2022-07-15T11:18:54;99641.28;;;29.90;30.08
7532;BME280;3807;49.030;8.714;2022-07-15T11:21:21;99641.59;;;29.95;30.17
7532;BME280;3807;49.030;8.714;2022-07-15T11:23:49;99645.88;;;29.96;30.25
7532;BME280;3807;49.030;8.714;2022-07-15T11:26:15;99643.72;;;30.00;29.85
7532;BME280;3807;49.030;8.714;2022-07-15T11:28:55;99631.94;;;29.96;28.24
7532;BME280;3807;49.030;8.714;2022-07-15T11:31:21;99635.47;;;30.19;28.65
7532;BME280;3807;49.030;8.714;2022-07-15T11:33:47;99638.75;;;30.21;30.00
7532;BME280;3807;49.030;8.714;2022-07-15T11:36:18;99633.38;;;30.46;29.28
7532;BME280;3807;49.030;8.714;2022-07-15T11:38:46;99634.94;;;30.63;28.99
7532;BME280;3807;49.030;8.714;2022-07-15T11:41:11;99644.75;;;30.77;28.92
7532;BME280;3807;49.030;8.714;2022-07-15T11:46:47;99653.81;;;30.67;29.12
7532;BME280;3807;49.030;8.714;2022-07-15T11:49:37;99641.47;;;30.75;27.94
7532;BME280;3807;49.030;8.714;2022-07-15T11:52:08;99639.56;;;31.15;28.05
7532;BME280;3807;49.030;8.714;2022-07-15T11:54:35;99637.31;;;31.27;28.37
7532;BME280;3807;49.030;8.714;2022-07-15T11:57:03;99638.13;;;31.27;28.14
7532;BME280;3807;49.030;8.714;2022-07-15T11:59:29;99628.25;;;31.29;27.42
7532;BME280;3807;49.030;8.714;2022-07-15T12:02:11;99642.66;;;31.42;27.89
7532;BME280;3807;49.030;8.714;2022-07-15T12:04:39;99637.22;;;31.58;27.71
7532;BME280;3807;49.030;8.714;2022-07-15T12:07:04;99639.06;;;31.72;27.79
7532;BME280;3807;49.030;8.714;2022-07-15T12:09:44;99644.41;;;31.79;27.69
7532;BME280;3807;49.030;8.714;2022-07-15T12:12:10;99644.19;;;31.89;27.77
7532;BME280;3807;49.030;8.714;2022-07-15T12:14:36;99647.62;;;31.89;27.43
7532;BME280;3807;49.030;8.714;2022-07-15T12:17:02;99641.38;;;32.05;26.98
7532;BME280;3807;49.030;8.714;2022-07-15T12:19:30;99639.47;;;32.14;27.24
7532;BME280;3807;49.030;8.714;2022-07-15T12:22:07;99638.38;;;32.23;27.27
7532;BME280;3807;49.030;8.714;2022-07-15T12:24:39;99637.81;;;32.42;26.40
7532;BME280;3807;49.030;8.714;2022-07-15T12:27:05;99637.16;;;32.40;27.12
7532;BME280;3807;49.030;8.714;2022-07-15T12:29:32;99630.94;;;32.63;26.70
7532;BME280;3807;49.030;8.714;2022-07-15T12:32:00;99639.72;;;32.48;26.53
7532;BME280;3807;49.030;8.714;2022-07-15T12:34:49;99641.31;;;32.64;26.69
7532;BME280;3807;49.030;8.714;2022-07-15T12:37:24;99643.09;;;32.79;26.64
7532;BME280;3807;49.030;8.714;2022-07-15T12:40:03;99636.94;;;32.93;26.16
7532;BME280;3807;49.030;8.714;2022-07-15T12:42:30;99643.84;;;32.94;25.95
7532;BME280;3807;49.030;8.714;2022-07-15T12:45:20;99633.16;;;32.81;26.33
7532;BME280;3807;49.030;8.714;2022-07-15T12:50:23;99626.34;;;33.08;25.60
7532;BME280;3807;49.030;8.714;2022-07-15T12:52:49;99629.84;;;33.15;25.69
7532;BME280;3807;49.030;8.714;2022-07-15T12:55:22;99629.00;;;33.36;25.69
7532;BME280;3807;49.030;8.714;2022-07-15T12:57:49;99623.50;;;33.31;25.97
7532;BME280;3807;49.030;8.714;2022-07-15T13:00:20;99628.25;;;33.42;25.47
7532;BME280;3807;49.030;8.714;2022-07-15T13:05:39;99631.88;;;33.62;25.32
7532;BME280;3807;49.030;8.714;2022-07-15T13:08:11;99638.28;;;33.53;25.12
7532;BME280;3807;49.030;8.714;2022-07-15T13:10:37;99632.03;;;33.61;25.48
7532;BME280;3807;49.030;8.714;2022-07-15T13:13:04;99626.25;;;33.79;24.66
7532;BME280;3807;49.030;8.714;2022-07-15T13:15:30;99635.44;;;33.83;24.22
7532;BME280;3807;49.030;8.714;2022-07-15T13:17:56;99636.06;;;33.85;24.38
7532;BME280;3807;49.030;8.714;2022-07-15T13:20:21;99626.47;;;33.77;24.66
7532;BME280;3807;49.030;8.714;2022-07-15T13:22:47;99627.66;;;34.09;24.25
7532;BME280;3807;49.030;8.714;2022-07-15T13:25:13;99626.59;;;33.97;24.18
7532;BME280;3807;49.030;8.714;2022-07-15T13:27:39;99631.38;;;34.15;24.24
7532;BME280;3807;49.030;8.714;2022-07-15T13:30:05;99627.56;;;34.24;23.90
7532;BME280;3807;49.030;8.714;2022-07-15T13:32:30;99621.19;;;34.12;24.25
7532;BME280;3807;49.030;8.714;2022-07-15T13:34:56;99614.34;;;34.24;24.09
7532;BME280;3807;49.030;8.714;2022-07-15T13:37:21;99615.62;;;34.42;23.31
7532;BME280;3807;49.030;8.714;2022-07-15T13:39:47;99625.13;;;34.29;24.41
7532;BME280;3807;49.030;8.714;2022-07-15T13:42:12;99621.09;;;34.47;23.67
7532;BME280;3807;49.030;8.714;2022-07-15T13:44:38;99623.00;;;34.53;23.38
7532;BME280;3807;49.030;8.714;2022-07-15T13:47:03;99621.72;;;34.42;23.30
7532;BME280;3807;49.030;8.714;2022-07-15T13:49:29;99620.53;;;34.51;23.41
7532;BME280;3807;49.030;8.714;2022-07-15T13:52:13;99618.97;;;34.70;23.34
7532;BME280;3807;49.030;8.714;2022-07-15T13:54:38;99612.28;;;34.88;22.92
7532;BME280;3807;49.030;8.714;2022-07-15T13:57:04;99612.25;;;34.74;23.33
7532;BME280;3807;49.030;8.714;2022-07-15T13:59:29;99616.31;;;34.70;23.34
7532;BME280;3807;49.030;8.714;2022-07-15T14:01:54;99612.66;;;34.71;22.82
7532;BME280;3807;49.030;8.714;2022-07-15T14:04:20;99612.63;;;34.65;23.12
7532;BME280;3807;49.030;8.714;2022-07-15T14:06:46;99615.91;;;34.80;22.20
7532;BME280;3807;49.030;8.714;2022-07-15T14:09:11;99615.31;;;34.91;22.92
7532;BME280;3807;49.030;8.714;2022-07-15T14:11:37;99616.34;;;34.83;22.05
7532;BME280;3807;49.030;8.714;2022-07-15T14:14:02;99622.44;;;34.97;22.33
7532;BME280;3807;49.030;8.714;2022-07-15T14:16:28;99617.97;;;34.91;23.33
7532;BME280;3807;49.030;8.714;2022-07-15T14:18:54;99627.13;;;34.89;22.92
7532;BME280;3807;49.030;8.714;2022-07-15T14:21:20;99616.94;;;34.92;22.91